Time;durP1;ratioP1;P1;durP2;ratioP2;P2;SDS_P1;SDS_P2;PMS_P1;PMS_P2;Temp;Humidity;BMP_temperature;BMP_pressure;BME280_temperature;BME280_humidity;BME280_pressure;Samples;Min_cycle;Max_cycle;Signal;HPM_P1;HPM_P2
2023/01/17 00:00:04;;;;;;;6.32;1.48;;;;;;;;;;6227105;23;20058;-91
2023/01/17 00:02:37;;;;;;;2.85;1.23;;;;;;;;;;6250734;23;20023;-91
2023/01/17 00:10:41;;;;;;;3.90;1.10;;;;;;;;;;6255839;23;20047;-90
2023/01/17 00:13:09;;;;;;;3.67;1.10;;;;;;;;;;6226710;23;20044;-89
2023/01/17 00:15:38;;;;;;;3.05;1.38;;;;;;;;;;6251899;23;20031;-90
2023/01/17 00:18:07;;;;;;;7.85;1.30;;;;;;;;;;6250226;23;20026;-89
2023/01/17 00:26:17;;;;;;;2.10;1.13;;;;;;;;;;6253840;23;20070;-90
2023/01/17 01:34:53;;;;;;;2.92;1.38;;;;;;;;;;6220105;23;20030;-90
2023/01/17 01:37:45;;;;;;;2.85;1.20;;;;;;;;;;6249201;23;20542;-90
2023/01/17 01:40:17;;;;;;;2.78;1.25;;;;;;;;;;6231136;23;20022;-91
2023/01/17 01:42:53;;;;;;;4.57;1.50;;;;;;;;;;6221697;23;20024;-91
2023/01/17 01:45:29;;;;;;;3.05;1.35;;;;;;;;;;6255999;23;20012;-90
2023/01/17 01:48:26;;;;;;;4.38;1.48;;;;;;;;;;6222327;23;20024;-90
2023/01/17 01:50:53;;;;;;;5.20;1.73;;;;;;;;;;6191517;23;20027;-91
2023/01/17 01:53:21;;;;;;;2.75;1.50;;;;;;;;;;6251408;23;20077;-91
2023/01/17 01:55:50;;;;;;;2.70;1.15;;;;;;;;;;6225819;23;20106;-91
2023/01/17 01:58:27;;;;;;;3.15;1.30;;;;;;;;;;6251249;23;20016;-91
2023/01/17 02:00:55;;;;;;;2.45;1.20;;;;;;;;;;6252762;22;20046;-91
2023/01/17 02:03:28;;;;;;;2.72;1.38;;;;;;;;;;6240902;23;20028;-92
2023/01/17 02:06:27;;;;;;;2.42;1.30;;;;;;;;;;6276522;22;20020;-91
2023/01/17 02:08:58;;;;;;;6.28;1.70;;;;;;;;;;6208736;23;20038;-91
2023/01/17 02:11:27;;;;;;;2.35;1.27;;;;;;;;;;6251378;23;20016;-92
2023/01/17 02:14:21;;;;;;;3.00;1.17;;;;;;;;;;6241987;23;20024;-91
2023/01/17 02:17:17;;;;;;;3.20;1.70;;;;;;;;;;6242054;23;20050;-91
2023/01/17 02:20:03;;;;;;;2.10;1.20;;;;;;;;;;6251519;23;20129;-92
2023/01/17 02:23:04;;;;;;;2.53;1.27;;;;;;;;;;6251502;23;20024;-91
2023/01/17 02:26:09;;;;;;;2.72;1.35;;;;;;;;;;6226122;23;20655;-91
2023/01/17 02:28:53;;;;;;;3.25;1.60;;;;;;;;;;6251888;23;20016;-92
2023/01/17 02:31:46;;;;;;;3.63;1.65;;;;;;;;;;6251487;23;20016;-91
2023/01/17 02:34:40;;;;;;;4.80;1.60;;;;;;;;;;6159292;23;20021;-91
2023/01/17 02:37:14;;;;;;;3.13;1.80;;;;;;;;;;6125252;23;20017;-91
2023/01/17 02:40:40;;;;;;;3.47;1.90;;;;;;;;;;6110833;23;20017;-91
2023/01/17 02:43:14;;;;;;;3.05;1.70;;;;;;;;;;6110627;23;20029;-90
2023/01/17 02:46:07;;;;;;;5.35;1.70;;;;;;;;;;6140411;23;20698;-91
2023/01/17 02:48:38;;;;;;;3.47;1.98;;;;;;;;;;6100661;23;20025;-91
2023/01/17 02:51:24;;;;;;;3.58;1.98;;;;;;;;;;6135110;23;20235;-91
2023/01/17 02:54:14;;;;;;;3.72;1.98;;;;;;;;;;6135160;23;20067;-91
2023/01/17 02:56:59;;;;;;;3.97;1.85;;;;;;;;;;6159282;23;20030;-91
2023/01/17 03:00:08;;;;;;;3.75;2.22;;;;;;;;;;6100165;23;20081;-91
2023/01/17 03:05:59;;;;;;;5.22;2.50;;;;;;;;;;6158658;23;20021;-92
2023/01/17 03:08:27;;;;;;;5.05;2.25;;;;;;;;;;6124490;23;20098;-92
2023/01/17 03:11:21;;;;;;;3.80;2.47;;;;;;;;;;6174866;23;20027;-91
2023/01/17 03:13:54;;;;;;;3.53;2.20;;;;;;;;;;6240296;23;20024;-91
2023/01/17 03:16:25;;;;;;;4.80;2.33;;;;;;;;;;6249902;23;20452;-91
2023/01/17 03:19:17;;;;;;;4.43;2.58;;;;;;;;;;6220032;23;20038;-91
2023/01/17 03:22:09;;;;;;;4.22;2.45;;;;;;;;;;6250777;23;20004;-91
2023/01/17 03:24:37;;;;;;;4.47;2.42;;;;;;;;;;6240390;23;20024;-91
2023/01/17 03:27:05;;;;;;;4.45;2.50;;;;;;;;;;6240569;23;20031;-91
2023/01/17 03:29:38;;;;;;;4.72;2.75;;;;;;;;;;6215800;23;20020;-91
2023/01/17 03:32:05;;;;;;;4.93;2.47;;;;;;;;;;6249871;23;20329;-92
2023/01/17 03:34:33;;;;;;;5.47;2.90;;;;;;;;;;6240646;23;20027;-92
2023/01/17 03:37:05;;;;;;;5.45;2.70;;;;;;;;;;6216680;23;20024;-91
2023/01/17 03:39:33;;;;;;;5.07;2.92;;;;;;;;;;6215250;23;20453;-92
2023/01/17 03:42:06;;;;;;;5.18;3.08;;;;;;;;;;6250316;23;20024;-91
2023/01/17 03:44:33;;;;;;;6.57;2.90;;;;;;;;;;6240291;23;20031;-91
2023/01/17 03:47:01;;;;;;;5.88;2.80;;;;;;;;;;6240442;23;20016;-91
2023/01/17 03:49:53;;;;;;;6.53;2.70;;;;;;;;;;6220613;23;20032;-92
2023/01/17 03:52:21;;;;;;;6.68;3.45;;;;;;;;;;6250324;23;20019;-92
2023/01/17 03:54:49;;;;;;;5.63;3.30;;;;;;;;;;6251769;22;20600;-91
2023/01/17 03:57:17;;;;;;;8.20;3.45;;;;;;;;;;6251868;22;20016;-91
2023/01/17 03:59:46;;;;;;;7.57;3.83;;;;;;;;;;6250423;23;20019;-91
2023/01/17 04:02:13;;;;;;;7.47;4.00;;;;;;;;;;6214781;23;20522;-91
2023/01/17 04:04:41;;;;;;;11.30;4.13;;;;;;;;;;6225632;23;20020;-92
2023/01/17 04:07:13;;;;;;;6.70;3.80;;;;;;;;;;6246156;23;20103;-91
2023/01/17 04:09:41;;;;;;;7.43;4.20;;;;;;;;;;6250464;23;20059;-91
2023/01/17 04:12:19;;;;;;;7.57;4.25;;;;;;;;;;6227770;23;20666;-91
2023/01/17 04:14:47;;;;;;;10.05;4.07;;;;;;;;;;6190593;23;20478;-91
2023/01/17 04:17:17;;;;;;;8.15;4.20;;;;;;;;;;6251005;23;20022;-91
2023/01/17 04:19:46;;;;;;;7.85;4.22;;;;;;;;;;6251047;23;20059;-91
2023/01/17 04:22:15;;;;;;;9.68;4.65;;;;;;;;;;6251728;23;20444;-91
2023/01/17 04:24:43;;;;;;;8.18;4.65;;;;;;;;;;6239607;23;20024;-92
2023/01/17 04:27:13;;;;;;;7.55;4.45;;;;;;;;;;6251625;22;20046;-91
2023/01/17 04:29:41;;;;;;;10.85;4.70;;;;;;;;;;6215532;23;20016;-91
2023/01/17 04:32:13;;;;;;;7.55;4.00;;;;;;;;;;6215894;23;20028;-91
2023/01/17 04:34:47;;;;;;;8.68;3.78;;;;;;;;;;6191664;23;20031;-92
2023/01/17 04:37:39;;;;;;;4.55;2.00;;;;;;;;;;6252246;23;20024;-91
2023/01/17 04:40:09;;;;;;;4.45;2.22;;;;;;;;;;6250625;23;20012;-91
2023/01/17 04:42:37;;;;;;;4.93;2.20;;;;;;;;;;6215073;23;20054;-91
2023/01/17 04:45:05;;;;;;;3.65;1.98;;;;;;;;;;6249940;23;20020;-91
2023/01/17 04:47:33;;;;;;;3.88;2.10;;;;;;;;;;6240968;23;20476;-91
2023/01/17 04:50:01;;;;;;;4.75;2.10;;;;;;;;;;6250902;23;20070;-91
2023/01/17 04:52:33;;;;;;;4.30;1.92;;;;;;;;;;6252361;23;20062;-91
2023/01/17 04:55:01;;;;;;;3.42;1.80;;;;;;;;;;6241057;23;20452;-91
2023/01/17 04:57:29;;;;;;;4.90;2.03;;;;;;;;;;6215789;23;20020;-90
2023/01/17 04:59:57;;;;;;;3.40;1.90;;;;;;;;;;6252291;22;20016;-91
2023/01/17 05:02:29;;;;;;;4.60;2.20;;;;;;;;;;6225175;23;20110;-90
2023/01/17 05:04:57;;;;;;;4.30;2.03;;;;;;;;;;6250368;23;20548;-91
2023/01/17 05:07:27;;;;;;;4.70;1.88;;;;;;;;;;6216368;23;20027;-91
2023/01/17 05:10:19;;;;;;;3.35;1.67;;;;;;;;;;6231105;23;20011;-91
2023/01/17 05:12:57;;;;;;;4.18;1.90;;;;;;;;;;6240598;23;20024;-91
2023/01/17 05:15:26;;;;;;;3.92;1.90;;;;;;;;;;6251662;23;20012;-91
2023/01/17 05:17:53;;;;;;;3.85;1.65;;;;;;;;;;6240863;23;20429;-91
2023/01/17 05:20:22;;;;;;;3.90;1.83;;;;;;;;;;6191885;23;20024;-91
2023/01/17 05:22:55;;;;;;;4.65;2.00;;;;;;;;;;6251894;23;20020;-91
2023/01/17 05:25:25;;;;;;;4.07;1.65;;;;;;;;;;6216681;23;20030;-91
2023/01/17 05:27:53;;;;;;;4.13;1.80;;;;;;;;;;6251741;23;20027;-91
2023/01/17 05:30:21;;;;;;;3.67;1.80;;;;;;;;;;6216182;23;20040;-91
2023/01/17 05:32:56;;;;;;;4.97;2.30;;;;;;;;;;6240536;23;20012;-90
2023/01/17 05:35:28;;;;;;;5.38;2.40;;;;;;;;;;6191912;23;20025;-91
2023/01/17 05:37:57;;;;;;;6.70;2.30;;;;;;;;;;6250959;23;20016;-90
2023/01/17 05:40:27;;;;;;;5.25;2.70;;;;;;;;;;6193423;23;20496;-92
2023/01/17 05:42:56;;;;;;;5.18;2.53;;;;;;;;;;6218681;23;20031;-91
2023/01/17 05:45:27;;;;;;;5.43;2.58;;;;;;;;;;6228085;23;20044;-91
2023/01/17 05:47:56;;;;;;;6.57;2.70;;;;;;;;;;6252769;23;20020;-91
2023/01/17 05:50:28;;;;;;;5.90;2.78;;;;;;;;;;6252691;23;20020;-92
2023/01/17 05:52:58;;;;;;;5.60;2.72;;;;;;;;;;6253958;22;20470;-91
2023/01/17 05:55:26;;;;;;;6.47;2.33;;;;;;;;;;6251835;23;20016;-91
2023/01/17 05:58:21;;;;;;;5.47;2.45;;;;;;;;;;6252032;23;20428;-91
2023/01/17 06:00:49;;;;;;;6.15;2.47;;;;;;;;;;6226791;23;20023;-91
2023/01/17 06:03:17;;;;;;;6.30;2.67;;;;;;;;;;6226506;23;20391;-91
2023/01/17 06:05:46;;;;;;;5.30;2.15;;;;;;;;;;6241343;23;20020;-90
2023/01/17 06:08:39;;;;;;;4.00;1.83;;;;;;;;;;6254508;23;20038;-90
2023/01/17 06:11:37;;;;;;;3.30;1.63;;;;;;;;;;6255035;23;20020;-90
2023/01/17 06:14:05;;;;;;;2.50;1.23;;;;;;;;;;6190829;23;20418;-90
2023/01/17 06:16:33;;;;;;;2.65;1.20;;;;;;;;;;6240957;23;20056;-90
2023/01/17 06:19:05;;;;;;;1.65;0.90;;;;;;;;;;6276349;22;20036;-90
2023/01/17 06:21:33;;;;;;;2.28;0.60;;;;;;;;;;6215981;23;20397;-89
2023/01/17 06:24:01;;;;;;;1.50;0.75;;;;;;;;;;6249224;23;20039;-89
2023/01/17 06:26:31;;;;;;;1.23;0.40;;;;;;;;;;6251039;22;20090;-90
2023/01/17 06:29:00;;;;;;;0.52;0.40;;;;;;;;;;6249975;23;20020;-90
2023/01/17 06:31:29;;;;;;;1.05;0.30;;;;;;;;;;6249935;23;20020;-90
2023/01/17 06:34:01;;;;;;;5.35;0.47;;;;;;;;;;6252129;22;20020;-90
2023/01/17 06:36:31;;;;;;;1.63;0.30;;;;;;;;;;6227089;23;20038;-90
2023/01/17 06:38:59;;;;;;;3.88;0.55;;;;;;;;;;6227739;23;20019;-88
2023/01/17 06:41:31;;;;;;;0.85;0.45;;;;;;;;;;6221307;23;20436;-90
2023/01/17 06:44:03;;;;;;;0.50;0.38;;;;;;;;;;6227836;23;20027;-90
2023/01/17 06:46:31;;;;;;;0.20;0.20;;;;;;;;;;6252918;22;20043;-90
2023/01/17 06:48:59;;;;;;;0.28;0.20;;;;;;;;;;6251403;23;20043;-90
2023/01/17 06:51:27;;;;;;;0.20;0.20;;;;;;;;;;6225286;23;20090;-90
2023/01/17 06:54:23;;;;;;;1.25;0.50;;;;;;;;;;6239897;23;20035;-89
2023/01/17 06:56:51;;;;;;;3.92;0.60;;;;;;;;;;6250058;23;20020;-89
2023/01/17 06:59:19;;;;;;;3.72;0.60;;;;;;;;;;6251337;23;20046;-90
2023/01/17 07:01:53;;;;;;;1.17;0.60;;;;;;;;;;6251391;23;20055;-90
2023/01/17 07:04:21;;;;;;;0.85;0.40;;;;;;;;;;6250218;23;20091;-90
2023/01/17 07:06:49;;;;;;;3.60;0.77;;;;;;;;;;6276940;22;20016;-90
2023/01/17 07:09:17;;;;;;;2.08;0.65;;;;;;;;;;6252313;23;20046;-90
2023/01/17 07:11:45;;;;;;;10.02;1.55;;;;;;;;;;6241810;23;20020;-89
2023/01/17 07:14:13;;;;;;;5.55;1.00;;;;;;;;;;6253373;22;20020;-90
2023/01/17 07:17:05;;;;;;;1.05;0.35;;;;;;;;;;6216726;23;20042;-90
2023/01/17 07:19:57;;;;;;;1.02;0.52;;;;;;;;;;6253399;23;20550;-90
2023/01/17 07:22:32;;;;;;;3.75;0.60;;;;;;;;;;6218107;23;20024;-90
2023/01/17 07:25:29;;;;;;;2.65;0.50;;;;;;;;;;6218497;23;20358;-89
2023/01/17 07:27:57;;;;;;;1.30;0.65;;;;;;;;;;6256083;22;20020;-90
2023/01/17 07:30:34;;;;;;;3.17;0.57;;;;;;;;;;6244448;23;20039;-89
2023/01/17 07:33:27;;;;;;;3.13;0.50;;;;;;;;;;6252051;23;20466;-90
2023/01/17 07:35:55;;;;;;;3.95;0.55;;;;;;;;;;6255049;22;20016;-89
2023/01/17 07:38:23;;;;;;;2.47;0.40;;;;;;;;;;6253136;23;20019;-89
2023/01/17 07:41:15;;;;;;;7.22;0.80;;;;;;;;;;6216093;23;20005;-90
2023/01/17 07:43:43;;;;;;;2.22;0.80;;;;;;;;;;6251964;23;20023;-90
2023/01/17 07:46:14;;;;;;;3.53;0.60;;;;;;;;;;6216518;23;20103;-90
2023/01/17 07:48:41;;;;;;;1.63;0.68;;;;;;;;;;6191675;23;20030;-90
2023/01/17 07:51:09;;;;;;;1.45;0.45;;;;;;;;;;6216451;23;20020;-90
2023/01/17 07:53:37;;;;;;;4.82;0.60;;;;;;;;;;6217037;23;20427;-90
2023/01/17 07:56:29;;;;;;;5.30;0.77;;;;;;;;;;6247139;22;20048;-90
2023/01/17 07:59:01;;;;;;;5.95;1.05;;;;;;;;;;6241083;23;20363;-90
2023/01/17 08:01:29;;;;;;;4.50;0.47;;;;;;;;;;6190147;23;20026;-90
2023/01/17 08:04:24;;;;;;;3.30;0.47;;;;;;;;;;6221823;23;20437;-90
2023/01/17 08:06:53;;;;;;;2.95;0.55;;;;;;;;;;6191536;23;20027;-89
2023/01/17 08:09:22;;;;;;;2.40;0.60;;;;;;;;;;6241606;23;20031;-90
2023/01/17 08:11:55;;;;;;;2.70;0.80;;;;;;;;;;6250983;23;20016;-90
2023/01/17 08:14:23;;;;;;;4.88;0.70;;;;;;;;;;6250034;23;20016;-90
2023/01/17 08:17:09;;;;;;;3.30;0.88;;;;;;;;;;6238064;23;20030;-90
2023/01/17 08:19:43;;;;;;;6.00;0.73;;;;;;;;;;6252190;23;20016;-89
2023/01/17 08:22:11;;;;;;;6.07;0.88;;;;;;;;;;6250934;22;20775;-89
2023/01/17 08:24:43;;;;;;;3.95;1.02;;;;;;;;;;6215572;23;20030;-90
2023/01/17 08:27:11;;;;;;;4.60;0.70;;;;;;;;;;6250884;23;20035;-89
2023/01/17 08:29:45;;;;;;;5.70;0.90;;;;;;;;;;6253534;22;20040;-89
2023/01/17 08:32:14;;;;;;;5.30;0.70;;;;;;;;;;6249892;23;20012;-90
2023/01/17 08:37:39;;;;;;;4.18;0.50;;;;;;;;;;6250971;23;20016;-90
2023/01/17 08:40:15;;;;;;;4.63;0.82;;;;;;;;;;6251517;23;20095;-89
2023/01/17 08:42:43;;;;;;;5.05;0.45;;;;;;;;;;6215788;23;20460;-90
2023/01/17 08:45:11;;;;;;;8.30;0.73;;;;;;;;;;6240527;23;20024;-90
2023/01/17 08:47:39;;;;;;;6.00;0.57;;;;;;;;;;6249095;23;20020;-89
2023/01/17 08:50:11;;;;;;;2.08;0.57;;;;;;;;;;6251385;23;20077;-89
2023/01/17 08:52:39;;;;;;;3.35;0.63;;;;;;;;;;6225925;23;20356;-90
2023/01/17 08:55:08;;;;;;;2.78;0.80;;;;;;;;;;6251147;23;20024;-90
2023/01/17 08:57:41;;;;;;;2.63;0.50;;;;;;;;;;6218309;23;20020;-90
2023/01/17 09:00:09;;;;;;;2.08;0.50;;;;;;;;;;6252949;23;20026;-90
2023/01/17 09:02:37;;;;;;;3.63;0.70;;;;;;;;;;6252528;23;20036;-90
2023/01/17 09:05:06;;;;;;;2.65;0.60;;;;;;;;;;6252380;23;20403;-90
2023/01/17 09:07:33;;;;;;;1.55;0.60;;;;;;;;;;6248021;22;20073;-90
2023/01/17 09:10:01;;;;;;;4.22;0.77;;;;;;;;;;6193158;23;20028;-90
2023/01/17 09:12:33;;;;;;;2.20;1.00;;;;;;;;;;6216318;23;20024;-90
2023/01/17 09:15:01;;;;;;;3.30;0.82;;;;;;;;;;6254662;23;20042;-90
2023/01/17 09:17:56;;;;;;;4.07;0.90;;;;;;;;;;6243928;23;20030;-90
2023/01/17 09:20:24;;;;;;;4.47;1.15;;;;;;;;;;6219875;23;20035;-90
2023/01/17 09:22:51;;;;;;;7.25;1.27;;;;;;;;;;6254761;23;20468;-90
2023/01/17 09:25:19;;;;;;;4.95;0.77;;;;;;;;;;6228090;23;20029;-90
2023/01/17 09:27:51;;;;;;;5.45;0.95;;;;;;;;;;6254951;23;20020;-91
2023/01/17 09:30:19;;;;;;;3.60;0.98;;;;;;;;;;6255936;22;20020;-89
2023/01/17 09:32:54;;;;;;;9.88;1.20;;;;;;;;;;6253357;23;20023;-90
2023/01/17 09:35:47;;;;;;;5.63;1.23;;;;;;;;;;6254970;23;20012;-91
2023/01/17 09:38:15;;;;;;;7.05;0.95;;;;;;;;;;6245184;22;20024;-90
2023/01/17 09:40:45;;;;;;;8.20;1.45;;;;;;;;;;6254429;23;20016;-90
2023/01/17 09:43:30;;;;;;;8.45;0.98;;;;;;;;;;6253531;23;20030;-90
2023/01/17 09:45:57;;;;;;;3.35;0.82;;;;;;;;;;6253463;23;20016;-90
2023/01/17 09:48:36;;;;;;;3.65;1.20;;;;;;;;;;6192803;23;20105;-90
2023/01/17 09:51:17;;;;;;;9.70;1.08;;;;;;;;;;6252678;23;20034;-90
2023/01/17 09:53:45;;;;;;;3.72;0.80;;;;;;;;;;6253022;23;20472;-90
2023/01/17 09:56:16;;;;;;;2.97;0.65;;;;;;;;;;6254770;22;20040;-90
2023/01/17 09:59:26;;;;;;;1.02;0.47;;;;;;;;;;6252657;23;20030;-89
2023/01/17 10:02:32;;;;;;;1.33;0.38;;;;;;;;;;6253363;23;20023;-90
2023/01/17 10:05:18;;;;;;;2.75;0.80;;;;;;;;;;6219017;23;20027;-90
2023/01/17 10:08:00;;;;;;;4.20;0.60;;;;;;;;;;6253870;23;20805;-90
2023/01/17 10:11:05;;;;;;;3.63;0.73;;;;;;;;;;6254091;23;20567;-90
2023/01/17 10:14:01;;;;;;;3.33;0.77;;;;;;;;;;6193598;23;20035;-90
2023/01/17 10:16:39;;;;;;;5.00;0.63;;;;;;;;;;6217308;23;20491;-91
2023/01/17 10:19:16;;;;;;;4.15;0.60;;;;;;;;;;6252829;23;20024;-90
2023/01/17 10:22:29;;;;;;;6.63;0.68;;;;;;;;;;6227480;23;20013;-90
2023/01/17 10:25:23;;;;;;;2.58;0.50;;;;;;;;;;6219270;23;20167;-90
2023/01/17 10:27:57;;;;;;;7.00;0.75;;;;;;;;;;6217241;23;20452;-90
2023/01/17 10:30:55;;;;;;;4.38;0.63;;;;;;;;;;6253271;23;20024;-90
2023/01/17 10:33:30;;;;;;;3.72;0.70;;;;;;;;;;6150278;23;20138;-91
2023/01/17 10:36:14;;;;;;;9.38;1.20;;;;;;;;;;6161467;23;20028;-90
2023/01/17 10:38:45;;;;;;;1.20;0.57;;;;;;;;;;6137317;23;20026;-90
2023/01/17 10:41:15;;;;;;;5.82;0.82;;;;;;;;;;6136896;23;20017;-90
2023/01/17 10:43:56;;;;;;;2.63;0.55;;;;;;;;;;6102679;23;20187;-90
2023/01/17 10:46:36;;;;;;;1.85;0.60;;;;;;;;;;6113167;23;20025;-90
2023/01/17 10:49:16;;;;;;;5.60;0.98;;;;;;;;;;6102698;23;20392;-90
2023/01/17 10:51:58;;;;;;;3.08;0.57;;;;;;;;;;6102332;23;20068;-91
2023/01/17 10:55:04;;;;;;;4.13;0.80;;;;;;;;;;6137713;23;20025;-90
2023/01/17 10:57:39;;;;;;;1.30;0.57;;;;;;;;;;6159919;23;20092;-91
2023/01/17 11:00:38;;;;;;;4.22;0.70;;;;;;;;;;6151561;23;20068;-91
2023/01/17 11:03:09;;;;;;;6.82;0.60;;;;;;;;;;6135896;23;20045;-91
2023/01/17 11:05:39;;;;;;;5.53;0.93;;;;;;;;;;6137347;23;20026;-91
2023/01/17 11:08:08;;;;;;;2.45;0.70;;;;;;;;;;6137359;23;20047;-90
2023/01/17 11:10:40;;;;;;;3.17;0.88;;;;;;;;;;6176719;23;20032;-91
2023/01/17 11:13:29;;;;;;;4.97;0.82;;;;;;;;;;6254008;23;20020;-90
2023/01/17 11:16:07;;;;;;;9.48;0.90;;;;;;;;;;6194025;23;20111;-91
2023/01/17 11:18:38;;;;;;;3.72;0.60;;;;;;;;;;6254116;22;20016;-90
2023/01/17 11:21:22;;;;;;;7.65;0.90;;;;;;;;;;6193036;23;20027;-90
2023/01/17 11:23:52;;;;;;;5.47;0.77;;;;;;;;;;6253035;23;20043;-90
2023/01/17 11:26:33;;;;;;;1.52;0.60;;;;;;;;;;6241991;23;20108;-91
2023/01/17 11:29:20;;;;;;;2.63;0.80;;;;;;;;;;6255200;23;20020;-90
2023/01/17 11:31:49;;;;;;;2.83;0.57;;;;;;;;;;6242362;22;20020;-90
2023/01/17 11:34:23;;;;;;;4.63;0.63;;;;;;;;;;6218400;23;20023;-90
2023/01/17 11:37:17;;;;;;;5.05;0.70;;;;;;;;;;6241869;23;20020;-90
2023/01/17 11:39:48;;;;;;;2.60;0.60;;;;;;;;;;6218412;23;20020;-90
2023/01/17 11:42:34;;;;;;;2.53;0.60;;;;;;;;;;6252610;23;20022;-91
2023/01/17 11:45:21;;;;;;;3.92;0.70;;;;;;;;;;6229996;23;20016;-91
2023/01/17 11:48:10;;;;;;;2.38;0.52;;;;;;;;;;6217853;23;20035;-91
2023/01/17 11:51:15;;;;;;;2.60;0.70;;;;;;;;;;6220101;23;20095;-90
2023/01/17 11:53:48;;;;;;;2.90;1.20;;;;;;;;;;6253605;23;20020;-90
2023/01/17 11:56:27;;;;;;;1.30;0.77;;;;;;;;;;6242632;22;20051;-90
2023/01/17 11:59:23;;;;;;;1.90;0.60;;;;;;;;;;6268617;22;20360;-90
2023/01/17 12:02:03;;;;;;;2.00;0.55;;;;;;;;;;6251063;23;20042;-89
2023/01/17 12:04:44;;;;;;;1.75;0.55;;;;;;;;;;6255547;23;20071;-91
2023/01/17 12:07:45;;;;;;;4.88;0.75;;;;;;;;;;6250386;23;20106;-90
2023/01/17 12:10:27;;;;;;;1.83;0.60;;;;;;;;;;6192950;23;20683;-90
2023/01/17 12:16:31;;;;;;;1.67;0.60;;;;;;;;;;6252765;23;20066;-90
2023/01/17 12:19:05;;;;;;;1.67;0.50;;;;;;;;;;6125109;23;20036;-90
2023/01/17 12:21:57;;;;;;;7.35;1.33;;;;;;;;;;6136259;23;20021;-90
2023/01/17 12:24:34;;;;;;;4.97;1.00;;;;;;;;;;6136296;23;20133;-90
2023/01/17 12:27:15;;;;;;;3.08;1.17;;;;;;;;;;6136333;23;20025;-90
2023/01/17 12:30:24;;;;;;;4.07;0.65;;;;;;;;;;6160913;23;20029;-90
2023/01/17 12:33:31;;;;;;;3.50;0.60;;;;;;;;;;6102638;23;20032;-91
2023/01/17 12:36:34;;;;;;;1.80;0.80;;;;;;;;;;6127351;23;20022;-92
2023/01/17 12:39:10;;;;;;;7.03;0.93;;;;;;;;;;6161786;23;20096;-91
2023/01/17 12:42:21;;;;;;;2.65;1.05;;;;;;;;;;6144180;23;20152;-90
2023/01/17 12:45:06;;;;;;;4.43;0.70;;;;;;;;;;6135448;23;20021;-90
2023/01/17 12:48:08;;;;;;;0.77;0.50;;;;;;;;;;6163678;23;20026;-90
2023/01/17 12:50:50;;;;;;;2.00;0.52;;;;;;;;;;6132627;23;20105;-91
2023/01/17 12:53:31;;;;;;;1.50;0.52;;;;;;;;;;6109561;23;20018;-90
2023/01/17 12:56:05;;;;;;;3.75;0.80;;;;;;;;;;6201175;23;20020;-90
2023/01/17 12:58:47;;;;;;;2.00;0.63;;;;;;;;;;6234973;23;20023;-90
2023/01/17 13:01:41;;;;;;;1.70;0.50;;;;;;;;;;6254724;23;20091;-91
2023/01/17 13:04:24;;;;;;;1.38;0.57;;;;;;;;;;6218048;23;20330;-90
2023/01/17 13:06:57;;;;;;;1.45;0.50;;;;;;;;;;6215361;23;20473;-90
2023/01/17 13:09:40;;;;;;;3.75;0.57;;;;;;;;;;6251117;23;20024;-90
2023/01/17 13:12:37;;;;;;;4.25;0.57;;;;;;;;;;6251624;23;20087;-90
2023/01/17 13:15:23;;;;;;;2.30;0.93;;;;;;;;;;6251525;23;20115;-89
2023/01/17 13:18:02;;;;;;;1.33;0.50;;;;;;;;;;6250652;22;20027;-90
2023/01/17 13:20:31;;;;;;;2.95;0.70;;;;;;;;;;6239737;22;20044;-89
2023/01/17 13:23:15;;;;;;;2.78;0.65;;;;;;;;;;6215386;23;20581;-90
2023/01/17 13:25:49;;;;;;;2.53;0.60;;;;;;;;;;6250816;22;20019;-89
2023/01/17 13:28:32;;;;;;;2.13;0.85;;;;;;;;;;6214796;23;20024;-90
2023/01/17 13:31:29;;;;;;;1.73;0.40;;;;;;;;;;6191495;23;20385;-90
2023/01/17 13:34:26;;;;;;;1.98;0.52;;;;;;;;;;6250335;23;20103;-89
2023/01/17 13:37:16;;;;;;;3.47;0.40;;;;;;;;;;6234052;23;20539;-89
2023/01/17 13:39:58;;;;;;;1.67;0.93;;;;;;;;;;6252583;23;20012;-89
2023/01/17 13:42:37;;;;;;;0.95;0.57;;;;;;;;;;6217269;23;20042;-89
2023/01/17 13:45:33;;;;;;;2.70;0.55;;;;;;;;;;6254170;23;20075;-89
2023/01/17 13:48:19;;;;;;;3.28;0.60;;;;;;;;;;6217525;23;20043;-90
2023/01/17 13:50:47;;;;;;;2.72;0.60;;;;;;;;;;6252984;23;20078;-90
2023/01/17 13:53:30;;;;;;;3.17;0.38;;;;;;;;;;6195086;23;20020;-90
2023/01/17 13:56:14;;;;;;;0.38;0.30;;;;;;;;;;6254220;23;20024;-90
2023/01/17 13:58:45;;;;;;;1.00;0.40;;;;;;;;;;6229069;23;20019;-89
2023/01/17 14:01:13;;;;;;;1.00;0.47;;;;;;;;;;6220544;23;20482;-90
2023/01/17 14:03:53;;;;;;;0.88;0.50;;;;;;;;;;6255011;23;20008;-90
2023/01/17 14:06:46;;;;;;;4.95;0.82;;;;;;;;;;6220144;23;20024;-90
2023/01/17 14:09:40;;;;;;;4.05;0.40;;;;;;;;;;6245166;23;20436;-90
2023/01/17 14:12:14;;;;;;;2.85;0.50;;;;;;;;;;6246463;23;20087;-90
2023/01/17 14:14:47;;;;;;;1.13;0.50;;;;;;;;;;6224374;23;20507;-90
2023/01/17 14:17:15;;;;;;;1.23;0.70;;;;;;;;;;6250272;23;20046;-90
2023/01/17 14:19:44;;;;;;;1.10;0.65;;;;;;;;;;6253199;22;20012;-90
2023/01/17 14:22:18;;;;;;;1.55;0.50;;;;;;;;;;6251545;23;20016;-91
2023/01/17 14:25:18;;;;;;;4.85;1.15;;;;;;;;;;6252036;23;20035;-90
2023/01/17 14:28:32;;;;;;;1.05;0.40;;;;;;;;;;6220774;23;20012;-90
2023/01/17 14:31:09;;;;;;;1.92;0.38;;;;;;;;;;6236008;22;20020;-90
2023/01/17 14:33:39;;;;;;;1.60;0.60;;;;;;;;;;6190979;23;20039;-91
2023/01/17 14:36:32;;;;;;;1.92;0.70;;;;;;;;;;6253025;23;20012;-90
2023/01/17 14:39:21;;;;;;;2.40;0.57;;;;;;;;;;6193141;23;20364;-91
2023/01/17 14:41:49;;;;;;;3.92;1.25;;;;;;;;;;6250765;23;20020;-90
2023/01/17 14:44:17;;;;;;;2.17;0.65;;;;;;;;;;6191508;23;20059;-90
2023/01/17 14:46:51;;;;;;;1.95;0.70;;;;;;;;;;6275645;22;20070;-90
2023/01/17 14:49:25;;;;;;;3.28;0.80;;;;;;;;;;6251542;23;20020;-91
2023/01/17 14:52:03;;;;;;;5.65;0.60;;;;;;;;;;6225171;23;20479;-91
2023/01/17 14:54:31;;;;;;;5.20;0.70;;;;;;;;;;6252841;22;20043;-90
2023/01/17 14:57:24;;;;;;;2.95;0.75;;;;;;;;;;6250538;23;20024;-90
2023/01/17 15:00:11;;;;;;;5.93;0.73;;;;;;;;;;6192483;23;20100;-90
2023/01/17 15:02:41;;;;;;;4.55;0.80;;;;;;;;;;6265212;22;20070;-90
2023/01/17 15:05:12;;;;;;;2.78;0.47;;;;;;;;;;6253729;22;20023;-90
2023/01/17 15:07:50;;;;;;;5.90;1.23;;;;;;;;;;6249659;23;20016;-89
2023/01/17 15:10:22;;;;;;;4.75;0.68;;;;;;;;;;6193226;23;20078;-91
2023/01/17 15:16:32;;;;;;;6.20;1.08;;;;;;;;;;6248740;23;20024;-89
2023/01/17 15:19:08;;;;;;;3.35;0.85;;;;;;;;;;6223250;23;20394;-90
2023/01/17 15:21:42;;;;;;;3.38;0.95;;;;;;;;;;6249314;23;20016;-90
2023/01/17 15:24:27;;;;;;;3.95;0.82;;;;;;;;;;6213467;23;20044;-89
2023/01/17 15:26:55;;;;;;;3.70;1.38;;;;;;;;;;6238118;22;20027;-90
2023/01/17 15:29:47;;;;;;;3.13;0.80;;;;;;;;;;6249668;23;20024;-91
2023/01/17 15:32:21;;;;;;;6.10;0.70;;;;;;;;;;6248998;23;20074;-90
2023/01/17 15:34:50;;;;;;;3.65;1.00;;;;;;;;;;6214643;23;20028;-91
2023/01/17 15:37:26;;;;;;;3.28;0.63;;;;;;;;;;6249684;23;20016;-90
2023/01/17 15:40:05;;;;;;;7.38;1.00;;;;;;;;;;6224176;23;20012;-90
2023/01/17 15:42:41;;;;;;;1.42;0.73;;;;;;;;;;6238330;23;20020;-91
2023/01/17 15:45:21;;;;;;;2.47;0.68;;;;;;;;;;6215769;23;20070;-90
2023/01/17 15:47:54;;;;;;;3.17;0.80;;;;;;;;;;6213878;23;20111;-90
2023/01/17 15:50:28;;;;;;;1.88;0.73;;;;;;;;;;6249629;23;20031;-90
2023/01/17 15:53:04;;;;;;;3.88;1.15;;;;;;;;;;6265177;22;20020;-89
2023/01/17 15:55:36;;;;;;;0.68;0.40;;;;;;;;;;6239663;23;20410;-90
2023/01/17 15:58:35;;;;;;;2.25;0.73;;;;;;;;;;6240295;23;20400;-90
2023/01/17 16:01:13;;;;;;;3.25;0.60;;;;;;;;;;6237034;23;20093;-89
2023/01/17 16:03:54;;;;;;;2.55;1.08;;;;;;;;;;6248998;23;20016;-89
2023/01/17 16:06:44;;;;;;;3.33;1.05;;;;;;;;;;6251303;22;20020;-89
2023/01/17 16:09:22;;;;;;;2.50;0.60;;;;;;;;;;6250708;22;20077;-89
2023/01/17 16:11:51;;;;;;;1.23;0.70;;;;;;;;;;6249240;23;20023;-89
2023/01/17 16:14:19;;;;;;;3.60;1.10;;;;;;;;;;6249467;23;20016;-89
2023/01/17 16:16:51;;;;;;;3.38;1.23;;;;;;;;;;6250273;23;20506;-89
2023/01/17 16:19:20;;;;;;;1.70;0.90;;;;;;;;;;6250847;22;20024;-89
2023/01/17 16:21:47;;;;;;;6.22;1.27;;;;;;;;;;6250116;23;20091;-90
2023/01/17 16:24:15;;;;;;;2.35;1.30;;;;;;;;;;6250647;22;20462;-92
2023/01/17 16:26:43;;;;;;;5.18;1.00;;;;;;;;;;6250240;23;20027;-91
2023/01/17 16:29:35;;;;;;;3.78;1.20;;;;;;;;;;6250675;23;20012;-92
2023/01/17 16:32:27;;;;;;;3.42;1.25;;;;;;;;;;6250942;23;20030;-90
2023/01/17 16:34:55;;;;;;;4.55;1.48;;;;;;;;;;6249890;23;20043;-91
2023/01/17 16:37:23;;;;;;;2.97;1.23;;;;;;;;;;6245499;23;20095;-90
2023/01/17 16:40:15;;;;;;;7.95;1.33;;;;;;;;;;6214394;23;20012;-90
2023/01/17 16:42:43;;;;;;;4.80;1.90;;;;;;;;;;6238802;23;20066;-90
2023/01/17 16:45:12;;;;;;;5.32;1.60;;;;;;;;;;6214745;23;20043;-89
2023/01/17 16:47:46;;;;;;;3.30;1.70;;;;;;;;;;6213281;23;20012;-90
2023/01/17 16:50:17;;;;;;;3.90;1.85;;;;;;;;;;6249373;23;20078;-90
2023/01/17 16:52:45;;;;;;;5.85;2.08;;;;;;;;;;6188933;23;20415;-90
2023/01/17 16:55:15;;;;;;;5.45;2.20;;;;;;;;;;6240214;23;20028;-92
2023/01/17 16:57:43;;;;;;;6.90;2.30;;;;;;;;;;6226871;23;20016;-90
2023/01/17 17:00:17;;;;;;;5.70;1.90;;;;;;;;;;6249593;23;20066;-91
2023/01/17 17:02:49;;;;;;;4.22;2.15;;;;;;;;;;6250913;22;20012;-89
2023/01/17 17:05:24;;;;;;;6.32;2.30;;;;;;;;;;6250433;23;20040;-90
2023/01/17 17:07:53;;;;;;;9.95;2.30;;;;;;;;;;6248677;23;20026;-91
2023/01/17 17:10:47;;;;;;;4.55;2.25;;;;;;;;;;6250340;23;20020;-91
2023/01/17 17:13:15;;;;;;;7.47;2.72;;;;;;;;;;6214628;23;20024;-90